CPG3 weather

Fort Erie (Eurocopter Canada) Heliport
Fort Erie, Ontario, Canada

Public forecast

Using degrees Celsius for public forecast. Weather courtesy of forecast.io.

METAR (pilot weather report)

Closest report is Buffalo Niagara International Airport, 9.9 nm (18.4 km) E. Retrieved 2019/09/17 23:54 UTC (12 minutes ago):

KBUF 172354Z 05006KT 10SM FEW280 18/11 A3019 RMK AO2 SLP224 T01830106 10233 20183 50002

TAF (pilot weather forecast)

Forecast is more than 12 hours old.

Closest forecast is Buffalo Niagara International Airport, 9.9 nm (18.4 km) E. Retrieved 2019/09/17 00:22 UTC (24 hours ago):

TAF KBUF 172320Z 1800/1824 05005KT P6SM SKC FM180400 13004KT P6SM SKC FM181400 09006KT P6SM SCT250 FM181700 08009KT P6SM SCT250